Time;durP1;ratioP1;P1;durP2;ratioP2;P2;SDS_P1;SDS_P2;PMS_P1;PMS_P2;Temp;Humidity;BMP_temperature;BMP_pressure;BME280_temperature;BME280_humidity;BME280_pressure;Samples;Min_cycle;Max_cycle;Signal;HPM_P1;HPM_P2
2021/11/16 00:00:34;;;;;;;;;28.75;24.25;;;;;10.58;100.00;102134.41;5018504;28;45474;-81
2021/11/16 00:02:59;;;;;;;;;32.50;26.75;;;;;10.65;100.00;102140.84;5018770;28;45986;-79
2021/11/16 00:05:25;;;;;;;;;26.00;23.50;;;;;10.68;100.00;102138.47;5019267;28;45384;-78
2021/11/16 00:07:52;;;;;;;;;26.00;23.25;;;;;10.70;100.00;102144.66;5021092;28;45513;-78
2021/11/16 00:10:19;;;;;;;;;24.00;22.00;;;;;10.64;100.00;102131.28;5022306;28;45487;-77
2021/11/16 00:12:45;;;;;;;;;33.50;25.00;;;;;10.72;100.00;102148.25;5023029;28;45817;-76
2021/11/16 00:15:11;;;;;;;;;29.75;22.00;;;;;10.71;100.00;102138.69;5034249;28;45365;-77
2021/11/16 00:17:37;;;;;;;;;27.00;24.25;;;;;10.73;100.00;102139.69;5022851;28;45556;-78
2021/11/16 00:20:09;;;;;;;;;29.75;24.25;;;;;10.73;100.00;102131.00;5019362;28;45404;-78
2021/11/16 00:22:35;;;;;;;;;24.25;20.75;;;;;10.75;100.00;102130.28;5001397;28;45509;-78
2021/11/16 00:27:32;;;;;;;;;24.75;20.00;;;;;10.69;100.00;102125.59;5019081;28;45457;-77
2021/11/16 00:29:57;;;;;;;;;22.25;18.50;;;;;10.71;100.00;102119.63;5018789;28;46294;-77
2021/11/16 00:32:23;;;;;;;;;29.50;24.25;;;;;10.70;100.00;102118.75;5018117;28;45490;-78
2021/11/16 00:34:49;;;;;;;;;23.50;17.50;;;;;10.68;100.00;102110.91;5018771;28;45219;-76
2021/11/16 00:37:16;;;;;;;;;28.50;22.75;;;;;10.66;100.00;102108.97;5019033;28;45426;-76
2021/11/16 00:39:42;;;;;;;;;28.00;17.75;;;;;10.53;100.00;102086.56;5018790;28;45324;-78
2021/11/16 00:42:08;;;;;;;;;20.00;18.50;;;;;10.58;100.00;102098.16;5018688;28;45957;-78
2021/11/16 00:44:34;;;;;;;;;26.50;17.25;;;;;10.59;100.00;102086.97;5018591;28;45331;-79
2021/11/16 00:46:59;;;;;;;;;20.00;18.75;;;;;10.55;100.00;102077.22;5018857;28;45572;-79
2021/11/16 00:49:25;;;;;;;;;25.75;19.75;;;;;10.63;100.00;102086.38;5020185;28;45930;-77
2021/11/16 00:51:51;;;;;;;;;22.00;20.25;;;;;10.66;100.00;102080.47;5001560;28;45462;-78
2021/11/16 00:54:17;;;;;;;;;21.00;17.50;;;;;10.66;100.00;102071.03;5018786;28;45787;-78
2021/11/16 00:56:42;;;;;;;;;24.75;20.75;;;;;10.72;100.00;102080.00;5018618;28;45349;-79
2021/11/16 00:59:08;;;;;;;;;20.00;18.50;;;;;10.71;100.00;102073.94;5018700;28;45536;-78
2021/11/16 01:01:33;;;;;;;;;23.75;18.00;;;;;10.70;100.00;102069.53;5018328;28;45252;-78
2021/11/16 01:04:00;;;;;;;;;22.25;19.25;;;;;10.71;100.00;102070.41;5018063;28;45244;-77
2021/11/16 01:06:26;;;;;;;;;25.75;20.75;;;;;10.68;100.00;102072.03;5018506;28;45526;-77
2021/11/16 01:08:52;;;;;;;;;23.25;17.00;;;;;10.69;100.00;102067.75;5018124;28;45467;-78
2021/11/16 01:11:17;;;;;;;;;25.75;21.00;;;;;10.68;100.00;102079.81;5018105;28;45607;-79
2021/11/16 01:13:43;;;;;;;;;24.25;21.75;;;;;10.71;100.00;102080.78;5018177;28;45312;-79
2021/11/16 01:16:10;;;;;;;;;20.75;18.25;;;;;10.73;100.00;102076.59;5018174;28;45581;-80
2021/11/16 01:18:37;;;;;;;;;18.25;17.00;;;;;10.72;100.00;102086.09;4998523;28;45371;-79
2021/11/16 01:21:03;;;;;;;;;23.75;18.75;;;;;10.71;100.00;102076.50;4998565;28;45406;-80
2021/11/16 01:23:29;;;;;;;;;26.25;19.75;;;;;10.71;100.00;102073.00;5017769;28;45304;-79
2021/11/16 01:25:55;;;;;;;;;25.50;19.00;;;;;10.59;100.00;102050.69;5017352;28;45343;-79
2021/11/16 01:28:26;;;;;;;;;24.50;14.50;;;;;10.62;100.00;102050.03;5026912;28;45305;-78
2021/11/16 01:30:54;;;;;;;;;21.00;15.25;;;;;10.71;100.00;102067.84;5027728;28;45907;-78
2021/11/16 01:36:15;;;;;;;;;14.00;13.00;;;;;10.66;100.00;102059.75;5013661;28;45399;-79
2021/11/16 01:38:43;;;;;;;;;25.75;18.00;;;;;10.73;100.00;102074.00;5018532;28;46076;-80
2021/11/16 01:41:10;;;;;;;;;19.75;15.50;;;;;10.71;100.00;102083.38;5017791;28;45982;-79
2021/11/16 01:43:37;;;;;;;;;12.25;12.25;;;;;10.64;100.00;102064.84;5017485;28;45402;-78
2021/11/16 01:46:05;;;;;;;;;20.50;15.75;;;;;10.66;100.00;102068.44;5018132;28;45463;-78
2021/11/16 01:48:33;;;;;;;;;14.25;12.50;;;;;10.70;100.00;102074.72;5017340;28;45969;-77
2021/11/16 01:51:01;;;;;;;;;17.00;14.00;;;;;10.70;100.00;102074.72;4999139;28;45473;-79
2021/11/16 01:53:28;;;;;;;;;21.25;15.75;;;;;10.58;100.00;102054.13;5017561;28;45486;-80
2021/11/16 01:55:54;;;;;;;;;17.00;14.25;;;;;10.69;100.00;102073.81;5017578;28;45449;-80
2021/11/16 01:58:19;;;;;;;;;18.50;17.00;;;;;10.69;100.00;102076.41;5018030;28;45971;-81
2021/11/16 02:00:46;;;;;;;;;20.75;17.00;;;;;10.75;100.00;102077.59;5016836;28;45387;-80
2021/11/16 02:03:12;;;;;;;;;21.00;15.50;;;;;10.72;100.00;102072.22;5017340;28;45295;-80
2021/11/16 02:05:41;;;;;;;;;16.75;12.00;;;;;10.74;100.00;102071.53;5017958;28;45470;-77
2021/11/16 02:08:07;;;;;;;;;16.75;14.00;;;;;10.70;100.00;102059.19;5016309;28;45586;-80
2021/11/16 02:10:33;;;;;;;;;17.00;12.00;;;;;10.71;100.00;102063.56;5018103;28;45376;-81
2021/11/16 02:12:59;;;;;;;;;16.00;15.00;;;;;10.69;100.00;102066.03;5023454;28;45340;-80
2021/11/16 02:15:24;;;;;;;;;17.00;12.75;;;;;10.64;100.00;102053.59;5018910;28;45462;-81
2021/11/16 02:17:50;;;;;;;;;21.25;15.75;;;;;10.65;100.00;102051.13;5017719;28;45380;-81
2021/11/16 02:20:16;;;;;;;;;12.00;12.00;;;;;10.77;100.00;102069.13;5017999;28;45340;-79
2021/11/16 02:22:44;;;;;;;;;19.75;12.00;;;;;10.66;100.00;102044.22;5017404;28;45481;-79
2021/11/16 02:25:10;;;;;;;;;17.00;13.25;;;;;10.76;100.00;102066.44;5017503;28;45349;-77
2021/11/16 02:27:36;;;;;;;;;15.25;13.25;;;;;10.73;100.00;102053.28;5002539;28;47751;-76
2021/11/16 02:30:06;;;;;;;;;20.75;16.25;;;;;10.73;100.00;102066.25;5018604;28;45389;-79
2021/11/16 02:32:32;;;;;;;;;16.75;14.25;;;;;10.65;100.00;102063.16;5029618;28;45254;-79
2021/11/16 02:34:58;;;;;;;;;15.75;15.00;;;;;10.59;100.00;102061.06;5016550;28;45542;-78
2021/11/16 02:37:24;;;;;;;;;16.00;15.00;;;;;10.54;100.00;102049.53;5017216;28;45877;-77
2021/11/16 02:39:50;;;;;;;;;18.75;14.50;;;;;10.56;100.00;102059.97;4999102;28;45446;-78
2021/11/16 02:42:19;;;;;;;;;12.00;10.00;;;;;10.53;100.00;102061.56;5016661;28;45852;-78
2021/11/16 02:44:46;;;;;;;;;18.75;16.25;;;;;10.57;100.00;102062.69;5016576;28;45925;-78
2021/11/16 02:47:13;;;;;;;;;12.25;10.75;;;;;10.59;100.00;102062.75;5016827;28;45346;-78
2021/11/16 02:49:39;;;;;;;;;15.25;13.50;;;;;10.57;100.00;102054.91;5016839;28;45334;-78
2021/11/16 02:52:12;;;;;;;;;16.75;13.75;;;;;10.57;100.00;102067.84;5000547;28;45328;-78
2021/11/16 02:54:39;;;;;;;;;15.00;15.00;;;;;10.43;100.00;102034.97;5018043;28;45362;-79
2021/11/16 02:57:07;;;;;;;;;23.50;18.00;;;;;10.59;100.00;102052.41;5018292;28;45356;-77
2021/11/16 02:59:33;;;;;;;;;19.25;14.75;;;;;10.51;100.00;102038.97;5017060;28;45336;-77
2021/11/16 03:01:58;;;;;;;;;18.50;17.00;;;;;10.53;100.00;102047.72;5016503;28;45351;-79
2021/11/16 03:04:24;;;;;;;;;15.50;14.25;;;;;10.55;100.00;102042.63;5015898;28;45470;-78
2021/11/16 03:06:50;;;;;;;;;20.50;14.50;;;;;10.60;100.00;102052.50;5016972;28;45276;-79
2021/11/16 03:09:16;;;;;;;;;17.50;15.00;;;;;10.55;100.00;102040.97;5016151;28;45427;-78
2021/11/16 03:11:41;;;;;;;;;15.75;14.25;;;;;10.60;100.00;102051.63;5016667;28;45376;-78
2021/11/16 03:14:07;;;;;;;;;18.00;17.75;;;;;10.58;100.00;102036.00;5016543;28;45380;-81
2021/11/16 03:16:33;;;;;;;;;13.50;10.00;;;;;10.62;100.00;102043.13;5016324;28;45887;-78
2021/11/16 03:19:00;;;;;;;;;18.75;13.00;;;;;10.59;100.00;102042.94;5016535;28;45893;-77
2021/11/16 03:21:26;;;;;;;;;16.75;14.75;;;;;10.57;100.00;102049.72;5016442;28;45239;-79
2021/11/16 03:23:56;;;;;;;;;14.75;11.00;;;;;10.47;100.00;102034.41;5016751;28;45502;-79
2021/11/16 03:26:24;;;;;;;;;18.00;14.25;;;;;10.57;100.00;102048.81;5017949;28;45228;-78
2021/11/16 03:28:51;;;;;;;;;17.50;14.00;;;;;10.58;100.00;102042.84;5021343;28;45327;-79
2021/11/16 03:31:21;;;;;;;;;17.75;16.50;;;;;10.59;100.00;102047.22;5002199;28;45332;-77
2021/11/16 03:33:48;;;;;;;;;19.50;14.75;;;;;10.49;100.00;102038.88;5002652;28;46582;-77
2021/11/16 03:36:15;;;;;;;;;21.00;16.50;;;;;10.54;100.00;102049.53;5019553;28;45425;-77
2021/11/16 03:38:41;;;;;;;;;15.00;13.25;;;;;10.47;100.00;102032.69;5021250;28;45808;-78
2021/11/16 03:41:08;;;;;;;;;18.75;15.50;;;;;10.50;100.00;102048.44;5019610;28;45352;-79
2021/11/16 03:43:34;;;;;;;;;18.50;14.50;;;;;10.44;100.00;102045.41;5020094;28;45475;-79
2021/11/16 03:46:00;;;;;;;;;11.00;7.75;;;;;10.46;100.00;102051.59;5019351;28;45711;-78
2021/11/16 03:48:27;;;;;;;;;24.25;17.50;;;;;10.38;100.00;102037.28;5019768;28;45365;-79
2021/11/16 03:50:54;;;;;;;;;16.50;15.50;;;;;10.42;100.00;102036.66;5019664;28;45320;-77
2021/11/16 03:53:20;;;;;;;;;15.00;12.00;;;;;10.52;100.00;102053.69;5020165;28;45485;-79
2021/11/16 03:55:47;;;;;;;;;20.50;15.00;;;;;10.51;100.00;102059.66;5018886;28;45375;-79
2021/11/16 03:58:17;;;;;;;;;24.75;12.75;;;;;10.48;100.00;102054.28;5019327;28;45368;-78
2021/11/16 04:00:50;;;;;;;;;20.50;16.25;;;;;10.44;100.00;102053.19;5019572;28;45510;-79
2021/11/16 04:03:17;;;;;;;;;16.75;14.50;;;;;10.43;100.00;102056.56;5020585;28;46038;-79
2021/11/16 04:05:43;;;;;;;;;17.25;17.25;;;;;10.41;100.00;102054.69;5020133;28;45313;-79
2021/11/16 04:08:09;;;;;;;;;19.75;14.00;;;;;10.43;100.00;102060.88;5015660;28;45367;-78
2021/11/16 04:10:35;;;;;;;;;22.25;15.50;;;;;10.43;100.00;102054.00;5014243;28;45489;-79
2021/11/16 04:13:01;;;;;;;;;17.50;16.50;;;;;10.38;100.00;102051.09;5019950;28;45265;-80
2021/11/16 04:15:29;;;;;;;;;25.50;17.00;;;;;10.43;100.00;102059.16;5018584;28;45494;-78
2021/11/16 04:17:57;;;;;;;;;22.75;17.50;;;;;10.41;100.00;102050.44;5021190;28;45805;-78
2021/11/16 04:20:24;;;;;;;;;20.25;16.00;;;;;10.44;100.00;102050.59;5022777;28;45321;-78
2021/11/16 04:22:52;;;;;;;;;22.50;21.00;;;;;10.37;100.00;102050.97;5020223;28;45281;-77
2021/11/16 04:25:18;;;;;;;;;10.00;7.50;;;;;10.40;100.00;102053.81;5000848;28;45566;-78
2021/11/16 04:27:45;;;;;;;;;19.75;16.50;;;;;10.39;100.00;102046.84;5019384;28;45248;-79
2021/11/16 04:30:13;;;;;;;;;26.25;18.50;;;;;10.41;100.00;102050.44;5019273;28;45402;-78
2021/11/16 04:32:40;;;;;;;;;22.75;18.50;;;;;10.38;100.00;102048.50;5018730;28;45503;-79
2021/11/16 04:35:06;;;;;;;;;19.25;16.50;;;;;10.40;100.00;102045.13;5018566;28;46047;-81
2021/11/16 04:37:32;;;;;;;;;24.25;18.00;;;;;10.34;100.00;102046.50;5018000;28;45816;-79
2021/11/16 04:39:59;;;;;;;;;22.25;17.50;;;;;10.37;100.00;102045.78;5031613;28;45370;-80
2021/11/16 04:42:26;;;;;;;;;17.50;16.50;;;;;10.37;100.00;102045.78;5040009;28;45330;-78
2021/11/16 04:44:52;;;;;;;;;23.50;18.00;;;;;10.37;100.00;102050.97;5033882;28;45701;-76
2021/11/16 04:47:27;;;;;;;;;19.50;17.25;;;;;10.29;100.00;102036.63;5020226;28;45555;-78
2021/11/16 04:50:01;;;;;;;;;19.00;15.50;;;;;10.37;100.00;102050.97;5018934;28;45315;-77
2021/11/16 05:03:23;;;;;;;;;15.75;15.00;;;;;10.49;100.00;102045.72;5021226;28;45290;-79
2021/11/16 05:05:49;;;;;;;;;19.75;15.25;;;;;10.51;100.00;102051.91;5018712;28;45988;-79
2021/11/16 05:08:15;;;;;;;;;23.25;19.75;;;;;10.51;100.00;102041.53;5017868;28;45284;-79
2021/11/16 05:10:41;;;;;;;;;23.50;17.00;;;;;10.56;100.00;102055.69;5018023;28;45432;-80
2021/11/16 05:13:07;;;;;;;;;17.00;14.50;;;;;10.54;100.00;102062.47;5018962;28;45341;-78
2021/11/16 05:15:34;;;;;;;;;21.25;16.00;;;;;10.51;100.00;102059.66;5017980;28;45365;-79
2021/11/16 05:18:00;;;;;;;;;21.00;18.25;;;;;10.51;100.00;102058.00;5018097;28;45812;-79
2021/11/16 05:20:26;;;;;;;;;21.50;16.75;;;;;10.40;100.00;102042.53;5018580;28;45400;-78
2021/11/16 05:22:54;;;;;;;;;25.25;20.00;;;;;10.43;100.00;102038.44;5018890;28;45342;-79
2021/11/16 05:25:21;;;;;;;;;24.00;15.50;;;;;10.49;100.00;102058.66;5012277;28;46332;-78
2021/11/16 05:27:47;;;;;;;;;24.00;20.00;;;;;10.47;100.00;102061.16;5017890;28;45819;-80
2021/11/16 05:30:14;;;;;;;;;23.75;17.25;;;;;10.41;100.00;102060.78;5017562;28;45778;-79
2021/11/16 05:32:41;;;;;;;;;19.00;18.25;;;;;10.35;100.00;102058.66;5017775;28;45692;-78
2021/11/16 05:35:09;;;;;;;;;22.00;19.75;;;;;10.35;100.00;102062.91;5017559;28;45608;-78
2021/11/16 05:37:35;;;;;;;;;22.25;17.00;;;;;10.35;100.00;102070.69;5012072;28;45514;-80
2021/11/16 05:40:02;;;;;;;;;21.25;18.25;;;;;10.36;100.00;102070.81;5019443;28;45309;-78
2021/11/16 05:42:28;;;;;;;;;23.75;19.25;;;;;10.33;100.00;102049.88;5019893;28;45267;-80
2021/11/16 05:44:54;;;;;;;;;22.50;20.00;;;;;10.30;100.00;102060.03;5018111;28;45387;-82
2021/11/16 05:47:20;;;;;;;;;20.50;19.75;;;;;10.32;100.00;102065.28;5017744;28;45340;-79
2021/11/16 05:49:46;;;;;;;;;25.25;19.50;;;;;10.25;100.00;102060.50;5017048;28;45313;-78
2021/11/16 05:52:12;;;;;;;;;25.25;18.00;;;;;10.29;100.00;102067.69;5017976;28;45525;-79
2021/11/16 05:54:38;;;;;;;;;26.75;23.50;;;;;10.29;100.00;102065.13;5018383;28;45323;-79
2021/11/16 05:57:06;;;;;;;;;26.25;20.50;;;;;10.28;100.00;102065.91;5018252;28;45469;-80
2021/11/16 05:59:36;;;;;;;;;29.00;22.25;;;;;10.34;100.00;102069.81;5018105;28;45696;-79
2021/11/16 06:02:12;;;;;;;;;26.50;18.00;;;;;10.33;100.00;102056.72;5017071;28;45446;-79
2021/11/16 06:04:39;;;;;;;;;25.00;22.25;;;;;10.35;100.00;102061.25;5017331;28;46429;-82
2021/11/16 06:07:07;;;;;;;;;26.00;19.75;;;;;10.33;100.00;102049.88;5032033;28;45463;-82
2021/11/16 06:09:33;;;;;;;;;17.25;15.25;;;;;10.45;100.00;102072.22;5017673;28;45350;-82
2021/11/16 06:12:01;;;;;;;;;24.00;19.75;;;;;10.40;100.00;102073.59;5017702;28;45564;-82
2021/11/16 06:14:27;;;;;;;;;33.25;23.75;;;;;10.43;100.00;102072.09;5033808;28;45310;-81
2021/11/16 06:16:53;;;;;;;;;23.75;15.50;;;;;10.44;100.00;102068.72;5017866;28;45954;-82
2021/11/16 06:19:24;;;;;;;;;17.75;15.75;;;;;10.44;100.00;102073.91;5017987;28;45349;-82
2021/11/16 06:21:51;;;;;;;;;23.50;18.50;;;;;10.43;100.00;102066.94;5020097;28;45545;-80
2021/11/16 06:24:16;;;;;;;;;18.75;16.75;;;;;10.34;100.00;102046.50;5020850;28;46084;-80
2021/11/16 06:26:42;;;;;;;;;20.00;15.50;;;;;10.49;100.00;102072.53;5019113;28;45492;-79
2021/11/16 06:29:08;;;;;;;;;18.00;17.25;;;;;10.49;100.00;102079.38;5017159;28;45332;-81
2021/11/16 06:31:35;;;;;;;;;25.50;22.00;;;;;10.51;100.00;102082.97;5017493;28;45290;-80
2021/11/16 06:34:03;;;;;;;;;18.00;15.50;;;;;10.49;100.00;102077.72;5018451;28;46077;-79
2021/11/16 06:36:36;;;;;;;;;20.50;17.50;;;;;10.44;100.00;102070.44;5015967;28;45510;-78
2021/11/16 06:39:14;;;;;;;;;26.75;21.50;;;;;10.43;100.00;102074.69;5016482;28;45564;-80
2021/11/16 06:41:41;;;;;;;;;20.50;18.00;;;;;10.43;100.00;102074.69;5016633;28;45513;-80
2021/11/16 06:44:09;;;;;;;;;22.50;20.00;;;;;10.42;100.00;102080.66;4998054;28;46727;-81
2021/11/16 06:46:35;;;;;;;;;24.75;21.75;;;;;10.26;100.00;102052.84;5016229;28;45488;-81
2021/11/16 06:49:04;;;;;;;;;20.75;16.75;;;;;10.44;100.00;102083.38;4998594;28;45269;-82
2021/11/16 06:51:36;;;;;;;;;22.75;17.25;;;;;10.41;100.00;102081.50;5016704;28;45521;-81
2021/11/16 06:54:04;;;;;;;;;22.25;16.50;;;;;10.37;100.00;102069.09;5005778;28;45827;-82
2021/11/16 06:56:29;;;;;;;;;24.25;22.75;;;;;10.34;100.00;102071.47;5015717;28;45512;-78
2021/11/16 06:58:55;;;;;;;;;24.75;17.00;;;;;10.42;100.00;102085.84;5004917;28;45541;-78
2021/11/16 07:01:21;;;;;;;;;21.50;17.75;;;;;10.40;100.00;102078.78;5027564;28;45303;-78
2021/11/16 07:03:51;;;;;;;;;17.25;16.25;;;;;10.37;100.00;102084.63;5028492;28;45273;-80
2021/11/16 07:06:18;;;;;;;;;20.50;19.25;;;;;10.37;100.00;102076.88;5019334;28;45903;-80
2021/11/16 07:08:46;;;;;;;;;25.00;19.25;;;;;10.37;100.00;102082.03;5018669;28;45347;-79
2021/11/16 07:11:21;;;;;;;;;22.00;17.25;;;;;10.29;100.00;102078.06;5017769;28;45463;-80
2021/11/16 07:14:06;;;;;;;;;21.25;17.25;;;;;10.37;100.00;102092.41;5017023;28;45497;-83
2021/11/16 07:16:56;;;;;;;;;22.75;17.75;;;;;10.38;100.00;102089.03;5013065;28;45858;-82
2021/11/16 07:19:43;;;;;;;;;27.50;23.00;;;;;10.36;100.00;102088.94;5005987;28;45301;-85
2021/11/16 07:22:30;;;;;;;;;21.00;17.00;;;;;10.34;100.00;102087.00;5016778;28;45404;-79
2021/11/16 07:25:05;;;;;;;;;30.50;24.25;;;;;10.30;100.00;102075.56;5014748;28;46010;-77
2021/11/16 07:27:44;;;;;;;;;27.25;20.50;;;;;10.35;100.00;102081.03;5015865;28;45331;-80
2021/11/16 07:30:12;;;;;;;;;23.50;18.75;;;;;10.34;100.00;102081.81;5014967;28;46650;-79
2021/11/16 07:33:01;;;;;;;;;22.25;18.75;;;;;10.34;100.00;102081.81;5014918;28;45388;-79
2021/11/16 07:35:29;;;;;;;;;25.50;22.00;;;;;10.35;100.00;102081.03;4996468;28;45465;-78
2021/11/16 07:38:00;;;;;;;;;26.75;19.75;;;;;10.31;100.00;102067.00;4994298;28;45445;-78
2021/11/16 07:40:29;;;;;;;;;31.50;28.00;;;;;10.35;100.00;102062.91;5001013;28;45412;-78
2021/11/16 07:43:11;;;;;;;;;26.25;20.25;;;;;10.46;100.00;102068.84;5007167;28;45236;-78
2021/11/16 07:45:52;;;;;;;;;22.50;21.75;;;;;10.38;100.00;102058.88;5007951;28;45716;-74
2021/11/16 07:48:27;;;;;;;;;27.25;21.50;;;;;10.48;100.00;102081.09;5015989;28;45248;-77
2021/11/16 07:50:59;;;;;;;;;28.75;22.50;;;;;10.48;100.00;102073.31;5015491;28;45241;-75
2021/11/16 07:53:37;;;;;;;;;23.50;17.75;;;;;10.50;100.00;102078.59;4996532;28;45639;-74
2021/11/16 07:56:09;;;;;;;;;21.25;16.75;;;;;10.53;100.00;102089.16;5009377;28;45743;-75
2021/11/16 07:58:47;;;;;;;;;23.00;18.25;;;;;10.52;100.00;102088.28;4997244;28;45847;-75
2021/11/16 08:01:15;;;;;;;;;22.50;17.00;;;;;10.58;100.00;102092.97;4997340;28;45415;-74
2021/11/16 08:03:49;;;;;;;;;15.50;12.75;;;;;10.58;100.00;102099.81;5015268;28;45441;-76
2021/11/16 08:06:22;;;;;;;;;20.00;15.75;;;;;10.45;100.00;102088.66;5015305;28;45419;-76
2021/11/16 08:11:21;;;;;;;;;21.50;15.25;;;;;10.42;100.00;102091.03;5015489;28;45574;-77
2021/11/16 08:14:11;;;;;;;;;23.75;19.50;;;;;10.39;100.00;102080.50;5018450;28;45400;-78
2021/11/16 08:16:48;;;;;;;;;20.00;16.25;;;;;10.41;100.00;102088.34;5009378;28;45431;-77
2021/11/16 08:19:21;;;;;;;;;21.00;16.75;;;;;10.51;100.00;102089.06;4998297;28;45631;-77
2021/11/16 08:21:55;;;;;;;;;24.50;18.50;;;;;10.43;100.00;102074.69;5013271;28;45470;-77
2021/11/16 08:24:23;;;;;;;;;20.75;20.75;;;;;10.58;100.00;102087.78;5018689;28;45440;-77
2021/11/16 08:26:50;;;;;;;;;19.00;17.75;;;;;10.47;100.00;102061.16;5018303;28;46232;-79
2021/11/16 08:29:28;;;;;;;;;24.25;17.75;;;;;10.59;100.00;102079.19;5019302;28;45249;-80
2021/11/16 08:32:04;;;;;;;;;23.00;17.25;;;;;10.58;100.00;102080.00;5019316;28;45652;-78
2021/11/16 08:34:32;;;;;;;;;21.50;17.75;;;;;10.60;100.00;102093.06;5020400;28;45287;-79
2021/11/16 08:36:58;;;;;;;;;19.00;17.75;;;;;10.57;100.00;102073.03;5019004;28;46228;-81
2021/11/16 08:39:38;;;;;;;;;18.00;17.75;;;;;10.66;100.00;102068.44;5018123;28;45322;-78
2021/11/16 08:42:16;;;;;;;;;22.00;17.25;;;;;10.68;100.00;102073.72;5002734;28;45242;-81
2021/11/16 08:45:01;;;;;;;;;19.50;16.75;;;;;10.65;100.00;102068.34;5019316;28;45532;-84
2021/11/16 08:47:30;;;;;;;;;19.50;17.25;;;;;10.67;100.00;102080.59;5018617;28;45543;-82
2021/11/16 08:49:56;;;;;;;;;21.00;18.00;;;;;10.69;100.00;102078.09;5018313;28;45452;-81
2021/11/16 08:52:26;;;;;;;;;27.00;21.75;;;;;10.71;100.00;102081.69;5013863;28;45529;-81
2021/11/16 08:55:04;;;;;;;;;26.00;21.75;;;;;10.73;100.00;102082.69;5018643;28;45520;-78
2021/11/16 08:57:33;;;;;;;;;24.50;18.25;;;;;10.72;100.00;102070.53;5017595;28;45536;-81
2021/11/16 09:00:01;;;;;;;;;23.25;17.50;;;;;10.74;100.00;102075.81;5020491;28;45429;-79
2021/11/16 09:02:29;;;;;;;;;20.75;16.75;;;;;10.69;100.00;102059.97;5018824;28;45502;-81
2021/11/16 09:04:55;;;;;;;;;18.50;16.75;;;;;10.76;100.00;102075.09;5012527;28;46537;-80
2021/11/16 09:07:29;;;;;;;;;19.75;18.00;;;;;10.77;100.00;102074.31;5015698;28;45610;-78
2021/11/16 09:10:05;;;;;;;;;21.25;17.00;;;;;10.78;100.00;102075.22;5000335;28;45472;-79
2021/11/16 09:12:49;;;;;;;;;21.25;18.50;;;;;10.74;100.00;102071.53;5018778;28;45352;-80
2021/11/16 09:15:22;;;;;;;;;24.75;21.25;;;;;10.80;100.00;102063.22;5026663;28;45245;-80
2021/11/16 09:17:49;;;;;;;;;22.25;18.75;;;;;10.77;100.00;102048.41;5021563;28;45446;-79
2021/11/16 09:20:25;;;;;;;;;20.50;17.75;;;;;10.83;100.00;102071.22;5018423;28;45323;-79
2021/11/16 09:22:54;;;;;;;;;18.00;17.75;;;;;10.80;100.00;102056.38;5016587;28;45474;-79
2021/11/16 09:25:26;;;;;;;;;25.25;21.25;;;;;10.78;100.00;102055.38;5008491;28;45710;-80
2021/11/16 09:28:01;;;;;;;;;25.25;19.00;;;;;10.73;100.00;102042.94;5000252;28;45589;-78
2021/11/16 09:30:36;;;;;;;;;20.50;18.75;;;;;10.82;100.00;102048.69;5006328;28;45584;-80
2021/11/16 09:33:05;;;;;;;;;24.25;21.00;;;;;10.79;100.00;102044.22;5004377;28;45394;-79
2021/11/16 09:36:02;;;;;;;;;21.50;17.00;;;;;10.74;100.00;102024.00;5014328;28;45399;-78
2021/11/16 09:38:47;;;;;;;;;18.75;17.50;;;;;10.85;100.00;102038.53;4986487;28;45551;-79
2021/11/16 09:41:20;;;;;;;;;18.50;16.25;;;;;10.81;100.00;102024.50;5015450;28;45478;-80
2021/11/16 09:43:52;;;;;;;;;23.00;16.75;;;;;10.86;100.00;102042.91;5016066;28;45407;-79
2021/11/16 09:46:18;;;;;;;;;24.00;16.25;;;;;10.83;100.00;102040.13;5007193;28;45490;-81
2021/11/16 09:48:44;;;;;;;;;21.25;17.25;;;;;10.91;100.00;102049.28;5014953;28;45541;-80
2021/11/16 09:51:19;;;;;;;;;18.75;16.50;;;;;10.95;100.00;102043.50;4997373;28;45415;-81
2021/11/16 09:53:46;;;;;;;;;17.50;16.75;;;;;10.98;100.00;102047.97;5016785;28;45478;-83
2021/11/16 09:56:24;;;;;;;;;16.25;16.25;;;;;10.97;100.00;102036.72;5018732;28;45511;-83
2021/11/16 09:58:51;;;;;;;;;27.00;23.50;;;;;11.02;100.00;102049.06;5020308;28;45443;-80
2021/11/16 10:01:30;;;;;;;;;16.75;16.75;;;;;10.98;100.00;102032.41;5019526;28;45252;-81
2021/11/16 10:04:16;;;;;;;;;24.00;19.50;;;;;10.92;100.00;102035.53;5016064;28;45459;-83
2021/11/16 10:06:42;;;;;;;;;25.50;23.50;;;;;10.92;100.00;102045.00;5023702;28;46158;-80
2021/11/16 10:09:09;;;;;;;;;18.25;18.25;;;;;10.93;100.00;102044.22;5012860;28;46154;-83
2021/11/16 10:11:41;;;;;;;;;21.75;20.25;;;;;10.86;100.00;102032.56;5016023;28;45495;-81
2021/11/16 10:14:09;;;;;;;;;24.00;16.25;;;;;10.92;100.00;102039.81;5016240;28;45399;-81
2021/11/16 10:16:35;;;;;;;;;21.25;17.25;;;;;10.99;100.00;102055.84;5017533;28;45531;-81
2021/11/16 10:19:01;;;;;;;;;24.50;18.25;;;;;11.01;100.00;102047.28;5016649;28;45353;-77
2021/11/16 10:21:27;;;;;;;;;21.00;18.00;;;;;11.01;100.00;102048.16;5009646;28;45922;-77
2021/11/16 10:23:55;;;;;;;;;23.50;20.00;;;;;11.01;100.00;102045.59;5011641;28;45289;-79
2021/11/16 10:26:21;;;;;;;;;26.50;17.75;;;;;10.94;100.00;102035.63;5008938;28;45822;-77
2021/11/16 10:28:48;;;;;;;;;26.25;19.25;;;;;10.91;100.00;102025.94;4994603;28;47380;-79
2021/11/16 10:31:25;;;;;;;;;20.25;18.00;;;;;11.04;100.00;102042.28;5014787;28;45948;-76
2021/11/16 10:33:54;;;;;;;;;15.50;13.25;;;;;11.11;100.00;102047.94;5015527;28;45443;-77
2021/11/16 10:36:21;;;;;;;;;20.25;18.25;;;;;11.15;100.00;102042.16;5015156;28;45453;-76
2021/11/16 10:39:05;;;;;;;;;22.25;16.25;;;;;11.23;100.00;102039.16;5015230;28;45432;-76
2021/11/16 10:41:36;;;;;;;;;14.50;11.50;;;;;11.18;100.00;102038.84;5010840;28;45428;-77
2021/11/16 10:44:11;;;;;;;;;19.75;18.00;;;;;11.20;100.00;102051.91;5016659;28;45788;-77
2021/11/16 10:46:43;;;;;;;;;16.75;15.75;;;;;11.20;100.00;102046.72;5013833;28;45361;-76
2021/11/16 10:49:14;;;;;;;;;20.00;15.25;;;;;11.09;100.00;102031.41;5015910;28;45342;-76
2021/11/16 10:51:42;;;;;;;;;19.00;15.00;;;;;11.02;100.00;102028.31;5014662;28;45858;-76
2021/11/16 10:54:12;;;;;;;;;17.00;13.00;;;;;11.13;100.00;102050.63;5015902;28;45527;-76
2021/11/16 10:56:40;;;;;;;;;16.50;15.00;;;;;11.06;100.00;102046.78;5015837;28;45421;-77
2021/11/16 10:59:13;;;;;;;;;12.00;9.00;;;;;11.10;100.00;102051.34;5014792;28;45456;-77
2021/11/16 11:01:51;;;;;;;;;15.50;12.25;;;;;11.10;100.00;102040.97;5014972;28;45805;-75
2021/11/16 11:04:20;;;;;;;;;17.25;15.75;;;;;11.07;100.00;102033.00;4996470;28;45443;-77
2021/11/16 11:06:49;;;;;;;;;17.00;16.00;;;;;11.17;100.00;102041.38;5015181;28;45332;-75
2021/11/16 11:09:16;;;;;;;;;18.00;16.50;;;;;11.15;100.00;102030.88;5014431;28;46258;-75
2021/11/16 11:11:45;;;;;;;;;19.25;16.75;;;;;11.15;100.00;102029.22;5014679;28;45489;-76
2021/11/16 11:14:17;;;;;;;;;20.50;18.75;;;;;11.18;100.00;102022.41;4998273;28;45277;-75
2021/11/16 11:16:54;;;;;;;;;17.75;13.50;;;;;11.17;100.00;102025.81;5015970;28;45375;-75
2021/11/16 11:19:37;;;;;;;;;23.25;19.00;;;;;11.17;100.00;102024.09;5015616;28;45329;-77
2021/11/16 11:24:56;;;;;;;;;22.25;17.50;;;;;11.19;100.00;102016.41;5015898;28;45312;-77
2021/11/16 11:27:36;;;;;;;;;23.25;17.50;;;;;11.20;100.00;102008.75;5015266;28;45525;-75
2021/11/16 11:30:11;;;;;;;;;22.50;16.00;;;;;11.18;100.00;102014.63;4997637;28;47600;-76
2021/11/16 11:32:42;;;;;;;;;26.50;21.50;;;;;11.12;100.00;102008.28;5028138;28;45272;-78